sensor_id;sensor_type;location;lat;lon;timestamp;P1;durP1;ratioP1;P2;durP2;ratioP2
54123;SDS011;55741;53.252;5.788;2023-02-18T00:01:15;23.52;;;5.57;;
54123;SDS011;55741;53.252;5.788;2023-02-18T00:03:43;32.67;;;4.53;;
54123;SDS011;55741;53.252;5.788;2023-02-18T00:06:13;26.63;;;4.15;;
54123;SDS011;55741;53.252;5.788;2023-02-18T00:08:48;27.92;;;4.70;;
54123;SDS011;55741;53.252;5.788;2023-02-18T00:11:15;24.83;;;4.45;;
54123;SDS011;55741;53.252;5.788;2023-02-18T00:13:42;28.27;;;5.35;;
54123;SDS011;55741;53.252;5.788;2023-02-18T00:16:09;19.90;;;4.45;;
54123;SDS011;55741;53.252;5.788;2023-02-18T00:18:44;21.13;;;5.25;;
54123;SDS011;55741;53.252;5.788;2023-02-18T00:21:10;25.88;;;4.93;;
54123;SDS011;55741;53.252;5.788;2023-02-18T00:23:36;25.92;;;5.30;;
54123;SDS011;55741;53.252;5.788;2023-02-18T00:26:04;22.73;;;4.18;;
54123;SDS011;55741;53.252;5.788;2023-02-18T00:28:32;31.27;;;5.25;;
54123;SDS011;55741;53.252;5.788;2023-02-18T00:31:13;21.38;;;3.85;;
54123;SDS011;55741;53.252;5.788;2023-02-18T00:33:41;33.53;;;5.82;;
54123;SDS011;55741;53.252;5.788;2023-02-18T00:36:09;25.17;;;4.55;;
54123;SDS011;55741;53.252;5.788;2023-02-18T00:38:37;19.67;;;3.85;;
54123;SDS011;55741;53.252;5.788;2023-02-18T00:41:03;24.40;;;4.70;;
54123;SDS011;55741;53.252;5.788;2023-02-18T00:43:29;21.25;;;4.95;;
54123;SDS011;55741;53.252;5.788;2023-02-18T00:45:55;30.35;;;4.72;;
54123;SDS011;55741;53.252;5.788;2023-02-18T00:48:21;29.45;;;4.88;;
54123;SDS011;55741;53.252;5.788;2023-02-18T00:50:47;30.80;;;4.32;;
54123;SDS011;55741;53.252;5.788;2023-02-18T00:53:13;28.42;;;5.55;;
54123;SDS011;55741;53.252;5.788;2023-02-18T00:55:40;22.25;;;5.00;;
54123;SDS011;55741;53.252;5.788;2023-02-18T00:58:10;27.77;;;5.18;;
54123;SDS011;55741;53.252;5.788;2023-02-18T01:00:36;28.50;;;5.13;;
54123;SDS011;55741;53.252;5.788;2023-02-18T01:03:02;25.23;;;4.82;;
54123;SDS011;55741;53.252;5.788;2023-02-18T01:05:30;19.35;;;4.38;;
54123;SDS011;55741;53.252;5.788;2023-02-18T01:07:56;27.23;;;5.07;;
54123;SDS011;55741;53.252;5.788;2023-02-18T01:10:22;26.65;;;5.97;;
54123;SDS011;55741;53.252;5.788;2023-02-18T01:12:54;20.38;;;6.40;;
54123;SDS011;55741;53.252;5.788;2023-02-18T01:15:20;27.05;;;4.78;;
54123;SDS011;55741;53.252;5.788;2023-02-18T01:17:46;28.52;;;5.90;;
54123;SDS011;55741;53.252;5.788;2023-02-18T01:20:13;22.20;;;4.75;;
54123;SDS011;55741;53.252;5.788;2023-02-18T01:22:39;33.67;;;4.95;;
54123;SDS011;55741;53.252;5.788;2023-02-18T01:25:26;20.48;;;5.03;;
54123;SDS011;55741;53.252;5.788;2023-02-18T01:27:52;24.42;;;5.65;;
54123;SDS011;55741;53.252;5.788;2023-02-18T01:30:18;30.08;;;5.57;;
54123;SDS011;55741;53.252;5.788;2023-02-18T01:32:46;25.70;;;5.00;;
54123;SDS011;55741;53.252;5.788;2023-02-18T01:35:14;24.80;;;5.57;;
54123;SDS011;55741;53.252;5.788;2023-02-18T01:37:41;21.48;;;5.63;;
54123;SDS011;55741;53.252;5.788;2023-02-18T01:40:07;29.45;;;4.82;;
54123;SDS011;55741;53.252;5.788;2023-02-18T01:42:36;20.75;;;5.68;;
54123;SDS011;55741;53.252;5.788;2023-02-18T01:47:53;22.88;;;5.22;;
54123;SDS011;55741;53.252;5.788;2023-02-18T01:50:19;29.42;;;5.90;;
54123;SDS011;55741;53.252;5.788;2023-02-18T01:52:45;21.52;;;5.18;;
54123;SDS011;55741;53.252;5.788;2023-02-18T01:55:11;26.35;;;5.38;;
54123;SDS011;55741;53.252;5.788;2023-02-18T01:57:37;15.85;;;4.00;;
54123;SDS011;55741;53.252;5.788;2023-02-18T02:00:08;21.40;;;5.00;;
54123;SDS011;55741;53.252;5.788;2023-02-18T02:02:46;23.10;;;5.65;;
54123;SDS011;55741;53.252;5.788;2023-02-18T02:05:14;24.17;;;4.88;;
54123;SDS011;55741;53.252;5.788;2023-02-18T02:07:40;25.95;;;5.10;;
54123;SDS011;55741;53.252;5.788;2023-02-18T02:10:09;26.45;;;5.15;;
54123;SDS011;55741;53.252;5.788;2023-02-18T02:12:45;16.15;;;4.07;;
54123;SDS011;55741;53.252;5.788;2023-02-18T02:15:31;19.27;;;5.07;;
54123;SDS011;55741;53.252;5.788;2023-02-18T02:18:24;19.17;;;4.40;;
54123;SDS011;55741;53.252;5.788;2023-02-18T02:21:19;27.70;;;5.25;;
54123;SDS011;55741;53.252;5.788;2023-02-18T02:32:42;25.02;;;4.40;;
54123;SDS011;55741;53.252;5.788;2023-02-18T02:38:03;25.80;;;5.35;;
54123;SDS011;55741;53.252;5.788;2023-02-18T02:43:50;19.55;;;5.60;;
54123;SDS011;55741;53.252;5.788;2023-02-18T02:46:47;20.70;;;5.72;;
54123;SDS011;55741;53.252;5.788;2023-02-18T02:54:36;17.35;;;4.80;;
54123;SDS011;55741;53.252;5.788;2023-02-18T02:57:06;18.77;;;5.38;;
54123;SDS011;55741;53.252;5.788;2023-02-18T02:59:32;15.88;;;4.93;;
54123;SDS011;55741;53.252;5.788;2023-02-18T03:10:27;18.75;;;5.47;;
54123;SDS011;55741;53.252;5.788;2023-02-18T03:13:08;25.98;;;6.05;;
54123;SDS011;55741;53.252;5.788;2023-02-18T03:20:59;22.98;;;4.53;;
54123;SDS011;55741;53.252;5.788;2023-02-18T03:23:43;14.70;;;4.07;;
54123;SDS011;55741;53.252;5.788;2023-02-18T03:26:18;15.00;;;4.22;;
54123;SDS011;55741;53.252;5.788;2023-02-18T03:28:47;20.30;;;5.28;;
54123;SDS011;55741;53.252;5.788;2023-02-18T03:31:17;16.23;;;4.00;;
54123;SDS011;55741;53.252;5.788;2023-02-18T03:33:51;13.15;;;4.05;;
54123;SDS011;55741;53.252;5.788;2023-02-18T03:36:23;19.23;;;3.90;;
54123;SDS011;55741;53.252;5.788;2023-02-18T03:41:23;11.70;;;3.40;;
54123;SDS011;55741;53.252;5.788;2023-02-18T03:43:49;16.75;;;4.07;;
54123;SDS011;55741;53.252;5.788;2023-02-18T03:46:17;13.65;;;2.95;;
54123;SDS011;55741;53.252;5.788;2023-02-18T03:48:43;15.75;;;2.88;;
54123;SDS011;55741;53.252;5.788;2023-02-18T03:51:09;13.40;;;2.22;;
54123;SDS011;55741;53.252;5.788;2023-02-18T03:53:35;9.65;;;2.88;;
54123;SDS011;55741;53.252;5.788;2023-02-18T03:56:01;13.57;;;3.00;;
54123;SDS011;55741;53.252;5.788;2023-02-18T03:58:27;13.10;;;2.72;;
54123;SDS011;55741;53.252;5.788;2023-02-18T04:00:52;14.57;;;3.10;;
54123;SDS011;55741;53.252;5.788;2023-02-18T04:03:18;9.13;;;2.95;;
54123;SDS011;55741;53.252;5.788;2023-02-18T04:05:46;12.38;;;3.42;;
54123;SDS011;55741;53.252;5.788;2023-02-18T04:08:12;13.60;;;3.80;;
54123;SDS011;55741;53.252;5.788;2023-02-18T04:10:38;12.07;;;3.40;;
54123;SDS011;55741;53.252;5.788;2023-02-18T04:13:04;16.15;;;3.28;;
54123;SDS011;55741;53.252;5.788;2023-02-18T04:15:30;18.17;;;4.63;;
54123;SDS011;55741;53.252;5.788;2023-02-18T04:17:56;18.60;;;4.45;;
54123;SDS011;55741;53.252;5.788;2023-02-18T04:20:22;16.25;;;4.38;;
54123;SDS011;55741;53.252;5.788;2023-02-18T04:22:47;15.25;;;3.92;;
54123;SDS011;55741;53.252;5.788;2023-02-18T04:25:14;16.70;;;4.82;;
54123;SDS011;55741;53.252;5.788;2023-02-18T04:27:40;16.80;;;4.63;;
54123;SDS011;55741;53.252;5.788;2023-02-18T04:30:06;19.90;;;5.97;;
54123;SDS011;55741;53.252;5.788;2023-02-18T04:32:32;21.55;;;6.43;;
54123;SDS011;55741;53.252;5.788;2023-02-18T04:34:58;25.08;;;6.95;;
54123;SDS011;55741;53.252;5.788;2023-02-18T04:37:26;32.92;;;8.57;;
54123;SDS011;55741;53.252;5.788;2023-02-18T04:39:52;24.20;;;9.18;;
54123;SDS011;55741;53.252;5.788;2023-02-18T04:42:18;29.42;;;10.40;;
54123;SDS011;55741;53.252;5.788;2023-02-18T04:44:44;32.90;;;10.35;;
54123;SDS011;55741;53.252;5.788;2023-02-18T04:47:09;46.28;;;12.15;;
54123;SDS011;55741;53.252;5.788;2023-02-18T04:49:35;42.25;;;13.80;;
54123;SDS011;55741;53.252;5.788;2023-02-18T04:52:01;39.80;;;14.82;;
54123;SDS011;55741;53.252;5.788;2023-02-18T04:54:27;45.60;;;15.55;;
54123;SDS011;55741;53.252;5.788;2023-02-18T04:56:55;48.65;;;17.17;;
54123;SDS011;55741;53.252;5.788;2023-02-18T04:59:22;59.88;;;19.00;;
54123;SDS011;55741;53.252;5.788;2023-02-18T05:01:48;53.40;;;21.35;;
54123;SDS011;55741;53.252;5.788;2023-02-18T05:04:14;64.43;;;24.02;;
54123;SDS011;55741;53.252;5.788;2023-02-18T05:06:42;60.30;;;23.15;;
54123;SDS011;55741;53.252;5.788;2023-02-18T05:09:08;59.70;;;25.48;;
54123;SDS011;55741;53.252;5.788;2023-02-18T05:11:35;66.28;;;26.92;;
54123;SDS011;55741;53.252;5.788;2023-02-18T05:14:01;70.53;;;27.02;;
54123;SDS011;55741;53.252;5.788;2023-02-18T05:16:27;65.40;;;26.65;;
54123;SDS011;55741;53.252;5.788;2023-02-18T05:18:56;62.53;;;27.23;;
54123;SDS011;55741;53.252;5.788;2023-02-18T05:21:22;60.10;;;28.27;;
54123;SDS011;55741;53.252;5.788;2023-02-18T05:23:47;60.85;;;30.33;;
54123;SDS011;55741;53.252;5.788;2023-02-18T05:26:13;57.78;;;29.58;;
54123;SDS011;55741;53.252;5.788;2023-02-18T05:28:44;58.55;;;31.92;;
54123;SDS011;55741;53.252;5.788;2023-02-18T05:31:11;53.92;;;29.10;;
54123;SDS011;55741;53.252;5.788;2023-02-18T05:33:39;75.13;;;34.90;;
54123;SDS011;55741;53.252;5.788;2023-02-18T05:36:05;65.25;;;32.05;;
54123;SDS011;55741;53.252;5.788;2023-02-18T05:38:37;60.40;;;30.35;;
54123;SDS011;55741;53.252;5.788;2023-02-18T05:41:03;56.55;;;31.08;;
54123;SDS011;55741;53.252;5.788;2023-02-18T05:43:29;58.80;;;30.05;;
54123;SDS011;55741;53.252;5.788;2023-02-18T05:45:55;65.03;;;29.42;;
54123;SDS011;55741;53.252;5.788;2023-02-18T05:48:21;77.65;;;33.17;;
54123;SDS011;55741;53.252;5.788;2023-02-18T05:50:47;78.47;;;32.92;;
54123;SDS011;55741;53.252;5.788;2023-02-18T05:53:13;82.30;;;34.30;;
54123;SDS011;55741;53.252;5.788;2023-02-18T05:55:39;82.15;;;35.53;;
54123;SDS011;55741;53.252;5.788;2023-02-18T05:58:06;65.82;;;31.63;;
54123;SDS011;55741;53.252;5.788;2023-02-18T06:00:32;74.80;;;35.22;;
54123;SDS011;55741;53.252;5.788;2023-02-18T06:02:58;75.25;;;30.83;;
54123;SDS011;55741;53.252;5.788;2023-02-18T06:05:29;69.25;;;28.42;;
54123;SDS011;55741;53.252;5.788;2023-02-18T06:07:55;66.18;;;30.88;;
54123;SDS011;55741;53.252;5.788;2023-02-18T06:10:21;73.22;;;31.40;;
54123;SDS011;55741;53.252;5.788;2023-02-18T06:12:47;64.88;;;30.50;;
54123;SDS011;55741;53.252;5.788;2023-02-18T06:15:13;71.70;;;30.92;;
54123;SDS011;55741;53.252;5.788;2023-02-18T06:17:39;72.68;;;31.30;;
54123;SDS011;55741;53.252;5.788;2023-02-18T06:20:05;68.50;;;30.90;;
54123;SDS011;55741;53.252;5.788;2023-02-18T06:22:31;80.47;;;33.17;;
54123;SDS011;55741;53.252;5.788;2023-02-18T06:24:57;63.60;;;28.48;;
54123;SDS011;55741;53.252;5.788;2023-02-18T06:27:24;70.45;;;30.77;;
54123;SDS011;55741;53.252;5.788;2023-02-18T06:29:49;80.50;;;31.80;;
54123;SDS011;55741;53.252;5.788;2023-02-18T06:32:15;81.22;;;32.67;;
54123;SDS011;55741;53.252;5.788;2023-02-18T06:34:41;65.93;;;30.30;;
54123;SDS011;55741;53.252;5.788;2023-02-18T06:37:09;63.40;;;28.00;;
54123;SDS011;55741;53.252;5.788;2023-02-18T06:39:37;61.50;;;27.83;;
54123;SDS011;55741;53.252;5.788;2023-02-18T06:42:03;61.88;;;27.80;;
54123;SDS011;55741;53.252;5.788;2023-02-18T06:44:32;74.75;;;28.65;;
54123;SDS011;55741;53.252;5.788;2023-02-18T06:46:58;69.72;;;28.15;;
54123;SDS011;55741;53.252;5.788;2023-02-18T06:49:24;54.17;;;26.85;;
54123;SDS011;55741;53.252;5.788;2023-02-18T06:51:50;69.65;;;25.48;;
54123;SDS011;55741;53.252;5.788;2023-02-18T06:54:16;57.03;;;24.63;;
54123;SDS011;55741;53.252;5.788;2023-02-18T06:56:42;50.50;;;22.70;;
54123;SDS011;55741;53.252;5.788;2023-02-18T06:59:08;53.85;;;24.20;;
54123;SDS011;55741;53.252;5.788;2023-02-18T07:01:34;45.83;;;21.65;;
54123;SDS011;55741;53.252;5.788;2023-02-18T07:04:00;49.75;;;21.35;;
54123;SDS011;55741;53.252;5.788;2023-02-18T07:06:26;47.65;;;19.55;;
54123;SDS011;55741;53.252;5.788;2023-02-18T07:08:52;40.88;;;20.52;;
54123;SDS011;55741;53.252;5.788;2023-02-18T07:11:19;44.55;;;19.58;;
54123;SDS011;55741;53.252;5.788;2023-02-18T07:13:45;45.45;;;19.05;;
54123;SDS011;55741;53.252;5.788;2023-02-18T07:16:11;39.70;;;18.15;;
54123;SDS011;55741;53.252;5.788;2023-02-18T07:18:37;39.80;;;17.92;;
54123;SDS011;55741;53.252;5.788;2023-02-18T07:21:03;40.38;;;17.90;;
54123;SDS011;55741;53.252;5.788;2023-02-18T07:23:29;47.10;;;18.90;;
54123;SDS011;55741;53.252;5.788;2023-02-18T07:26:05;34.83;;;17.23;;
54123;SDS011;55741;53.252;5.788;2023-02-18T07:28:32;32.95;;;16.70;;
54123;SDS011;55741;53.252;5.788;2023-02-18T07:30:58;41.55;;;16.63;;
54123;SDS011;55741;53.252;5.788;2023-02-18T07:33:24;38.60;;;17.58;;
54123;SDS011;55741;53.252;5.788;2023-02-18T07:35:57;31.48;;;14.85;;
54123;SDS011;55741;53.252;5.788;2023-02-18T07:38:24;36.63;;;14.88;;
54123;SDS011;55741;53.252;5.788;2023-02-18T07:40:52;34.88;;;13.95;;
54123;SDS011;55741;53.252;5.788;2023-02-18T07:43:19;36.70;;;13.48;;
54123;SDS011;55741;53.252;5.788;2023-02-18T07:45:45;33.95;;;13.32;;
54123;SDS011;55741;53.252;5.788;2023-02-18T07:48:11;28.95;;;12.70;;
54123;SDS011;55741;53.252;5.788;2023-02-18T07:50:42;26.60;;;10.50;;
54123;SDS011;55741;53.252;5.788;2023-02-18T07:53:10;31.05;;;10.98;;
54123;SDS011;55741;53.252;5.788;2023-02-18T07:55:37;26.63;;;9.00;;
54123;SDS011;55741;53.252;5.788;2023-02-18T07:58:16;23.83;;;7.88;;
54123;SDS011;55741;53.252;5.788;2023-02-18T08:00:43;32.25;;;8.57;;
54123;SDS011;55741;53.252;5.788;2023-02-18T08:03:09;26.55;;;8.18;;
54123;SDS011;55741;53.252;5.788;2023-02-18T08:05:35;34.67;;;8.82;;
54123;SDS011;55741;53.252;5.788;2023-02-18T08:08:01;34.03;;;8.13;;
54123;SDS011;55741;53.252;5.788;2023-02-18T08:10:27;39.08;;;9.95;;
54123;SDS011;55741;53.252;5.788;2023-02-18T08:12:53;27.63;;;6.13;;
54123;SDS011;55741;53.252;5.788;2023-02-18T08:15:19;27.17;;;6.40;;
54123;SDS011;55741;53.252;5.788;2023-02-18T08:17:45;31.48;;;6.50;;
54123;SDS011;55741;53.252;5.788;2023-02-18T08:20:11;28.20;;;6.53;;
54123;SDS011;55741;53.252;5.788;2023-02-18T08:22:38;31.02;;;6.13;;
54123;SDS011;55741;53.252;5.788;2023-02-18T08:25:04;31.67;;;4.93;;
54123;SDS011;55741;53.252;5.788;2023-02-18T08:27:31;26.33;;;6.22;;
54123;SDS011;55741;53.252;5.788;2023-02-18T08:29:57;31.13;;;4.80;;
54123;SDS011;55741;53.252;5.788;2023-02-18T08:32:25;24.98;;;4.60;;
54123;SDS011;55741;53.252;5.788;2023-02-18T08:34:52;30.63;;;6.07;;
54123;SDS011;55741;53.252;5.788;2023-02-18T08:37:18;33.63;;;5.43;;
54123;SDS011;55741;53.252;5.788;2023-02-18T08:39:44;28.98;;;5.43;;
54123;SDS011;55741;53.252;5.788;2023-02-18T08:42:12;26.55;;;4.22;;
54123;SDS011;55741;53.252;5.788;2023-02-18T08:44:38;26.17;;;4.53;;
54123;SDS011;55741;53.252;5.788;2023-02-18T08:47:04;21.63;;;3.55;;
54123;SDS011;55741;53.252;5.788;2023-02-18T08:49:30;23.92;;;3.78;;
54123;SDS011;55741;53.252;5.788;2023-02-18T08:51:56;31.65;;;4.20;;
54123;SDS011;55741;53.252;5.788;2023-02-18T08:54:24;18.80;;;4.00;;
54123;SDS011;55741;53.252;5.788;2023-02-18T08:56:53;21.33;;;3.55;;
54123;SDS011;55741;53.252;5.788;2023-02-18T08:59:21;22.13;;;4.00;;
54123;SDS011;55741;53.252;5.788;2023-02-18T09:01:46;22.42;;;3.65;;
54123;SDS011;55741;53.252;5.788;2023-02-18T09:04:12;28.17;;;4.70;;
54123;SDS011;55741;53.252;5.788;2023-02-18T09:06:38;22.83;;;3.22;;
54123;SDS011;55741;53.252;5.788;2023-02-18T09:09:04;30.70;;;5.25;;
54123;SDS011;55741;53.252;5.788;2023-02-18T09:11:30;26.17;;;3.67;;
54123;SDS011;55741;53.252;5.788;2023-02-18T09:13:57;24.45;;;4.85;;
54123;SDS011;55741;53.252;5.788;2023-02-18T09:16:23;29.45;;;4.55;;
54123;SDS011;55741;53.252;5.788;2023-02-18T09:18:49;25.05;;;4.88;;
54123;SDS011;55741;53.252;5.788;2023-02-18T09:21:16;25.63;;;4.13;;
54123;SDS011;55741;53.252;5.788;2023-02-18T09:23:44;19.30;;;4.05;;
54123;SDS011;55741;53.252;5.788;2023-02-18T09:26:12;23.92;;;5.50;;
54123;SDS011;55741;53.252;5.788;2023-02-18T09:28:39;27.13;;;4.30;;
54123;SDS011;55741;53.252;5.788;2023-02-18T09:31:09;28.52;;;4.50;;
54123;SDS011;55741;53.252;5.788;2023-02-18T09:33:43;35.05;;;4.65;;
54123;SDS011;55741;53.252;5.788;2023-02-18T09:36:18;26.08;;;4.25;;
54123;SDS011;55741;53.252;5.788;2023-02-18T09:38:47;29.85;;;5.05;;
54123;SDS011;55741;53.252;5.788;2023-02-18T09:41:25;29.48;;;5.47;;
54123;SDS011;55741;53.252;5.788;2023-02-18T09:43:56;25.67;;;4.65;;
54123;SDS011;55741;53.252;5.788;2023-02-18T09:46:32;27.85;;;4.55;;
54123;SDS011;55741;53.252;5.788;2023-02-18T09:49:04;21.30;;;4.38;;
54123;SDS011;55741;53.252;5.788;2023-02-18T09:51:36;31.02;;;5.43;;
54123;SDS011;55741;53.252;5.788;2023-02-18T09:54:02;23.08;;;4.95;;
54123;SDS011;55741;53.252;5.788;2023-02-18T09:56:30;26.55;;;5.07;;
54123;SDS011;55741;53.252;5.788;2023-02-18T09:58:59;26.92;;;5.10;;
54123;SDS011;55741;53.252;5.788;2023-02-18T10:01:35;28.95;;;4.55;;
54123;SDS011;55741;53.252;5.788;2023-02-18T10:04:13;22.73;;;4.40;;
54123;SDS011;55741;53.252;5.788;2023-02-18T10:06:50;26.35;;;4.10;;
54123;SDS011;55741;53.252;5.788;2023-02-18T10:09:21;29.13;;;5.45;;
54123;SDS011;55741;53.252;5.788;2023-02-18T10:12:15;29.08;;;4.53;;
54123;SDS011;55741;53.252;5.788;2023-02-18T10:14:45;29.05;;;4.82;;
54123;SDS011;55741;53.252;5.788;2023-02-18T10:17:17;25.92;;;5.38;;
54123;SDS011;55741;53.252;5.788;2023-02-18T10:19:46;29.52;;;5.85;;
54123;SDS011;55741;53.252;5.788;2023-02-18T10:22:14;27.45;;;4.90;;
54123;SDS011;55741;53.252;5.788;2023-02-18T10:24:55;28.52;;;5.38;;
54123;SDS011;55741;53.252;5.788;2023-02-18T10:27:27;25.90;;;5.03;;
54123;SDS011;55741;53.252;5.788;2023-02-18T10:33:45;22.17;;;4.50;;
54123;SDS011;55741;53.252;5.788;2023-02-18T10:35:53;26.83;;;4.97;;
54123;SDS011;55741;53.252;5.788;2023-02-18T10:38:48;21.00;;;4.07;;
54123;SDS011;55741;53.252;5.788;2023-02-18T10:41:41;19.70;;;4.30;;
54123;SDS011;55741;53.252;5.788;2023-02-18T10:50:10;23.48;;;5.35;;
54123;SDS011;55741;53.252;5.788;2023-02-18T10:52:43;23.65;;;5.00;;
54123;SDS011;55741;53.252;5.788;2023-02-18T10:55:14;25.45;;;4.93;;
54123;SDS011;55741;53.252;5.788;2023-02-18T10:57:52;23.98;;;5.43;;
54123;SDS011;55741;53.252;5.788;2023-02-18T11:00:20;29.10;;;5.80;;
54123;SDS011;55741;53.252;5.788;2023-02-18T11:05:41;29.50;;;5.25;;
54123;SDS011;55741;53.252;5.788;2023-02-18T11:08:09;25.65;;;4.53;;
54123;SDS011;55741;53.252;5.788;2023-02-18T11:10:43;24.92;;;4.35;;
54123;SDS011;55741;53.252;5.788;2023-02-18T11:13:11;29.27;;;5.20;;
54123;SDS011;55741;53.252;5.788;2023-02-18T11:15:59;23.42;;;4.15;;
54123;SDS011;55741;53.252;5.788;2023-02-18T11:18:38;25.77;;;5.40;;
54123;SDS011;55741;53.252;5.788;2023-02-18T11:21:19;18.38;;;4.47;;
54123;SDS011;55741;53.252;5.788;2023-02-18T11:23:54;26.08;;;5.30;;
54123;SDS011;55741;53.252;5.788;2023-02-18T11:26:26;27.90;;;4.97;;
54123;SDS011;55741;53.252;5.788;2023-02-18T11:28:57;22.85;;;4.10;;
54123;SDS011;55741;53.252;5.788;2023-02-18T11:31:29;24.73;;;4.72;;
54123;SDS011;55741;53.252;5.788;2023-02-18T11:34:04;29.13;;;4.70;;
54123;SDS011;55741;53.252;5.788;2023-02-18T11:36:32;27.70;;;5.80;;
54123;SDS011;55741;53.252;5.788;2023-02-18T11:39:04;27.88;;;4.95;;
54123;SDS011;55741;53.252;5.788;2023-02-18T11:44:31;24.90;;;4.85;;
54123;SDS011;55741;53.252;5.788;2023-02-18T11:49:31;17.92;;;4.55;;
54123;SDS011;55741;53.252;5.788;2023-02-18T11:52:13;24.38;;;5.82;;
54123;SDS011;55741;53.252;5.788;2023-02-18T11:55:05;28.92;;;5.72;;
54123;SDS011;55741;53.252;5.788;2023-02-18T11:57:33;22.15;;;5.03;;
54123;SDS011;55741;53.252;5.788;2023-02-18T12:00:00;31.02;;;5.90;;
54123;SDS011;55741;53.252;5.788;2023-02-18T12:04:59;26.58;;;5.10;;
54123;SDS011;55741;53.252;5.788;2023-02-18T12:12:50;30.67;;;5.88;;
54123;SDS011;55741;53.252;5.788;2023-02-18T12:21:20;32.78;;;6.35;;
54123;SDS011;55741;53.252;5.788;2023-02-18T12:26:30;27.65;;;4.75;;
54123;SDS011;55741;53.252;5.788;2023-02-18T12:46:01;20.90;;;4.35;;
54123;SDS011;55741;53.252;5.788;2023-02-18T13:00:03;19.98;;;5.28;;
54123;SDS011;55741;53.252;5.788;2023-02-18T13:02:45;23.85;;;4.68;;
54123;SDS011;55741;53.252;5.788;2023-02-18T13:08:13;27.52;;;5.30;;
54123;SDS011;55741;53.252;5.788;2023-02-18T13:10:52;26.30;;;4.53;;
54123;SDS011;55741;53.252;5.788;2023-02-18T13:16:24;24.80;;;4.85;;
54123;SDS011;55741;53.252;5.788;2023-02-18T13:18:58;29.17;;;4.72;;
54123;SDS011;55741;53.252;5.788;2023-02-18T13:21:44;30.25;;;5.22;;
54123;SDS011;55741;53.252;5.788;2023-02-18T13:24:30;22.80;;;4.35;;
54123;SDS011;55741;53.252;5.788;2023-02-18T13:27:05;22.88;;;4.55;;
54123;SDS011;55741;53.252;5.788;2023-02-18T13:29:50;28.45;;;5.55;;
54123;SDS011;55741;53.252;5.788;2023-02-18T13:35:43;25.33;;;4.43;;
54123;SDS011;55741;53.252;5.788;2023-02-18T13:41:12;22.77;;;4.47;;
54123;SDS011;55741;53.252;5.788;2023-02-18T13:43:38;28.98;;;4.78;;
54123;SDS011;55741;53.252;5.788;2023-02-18T13:48:39;30.02;;;5.72;;
54123;SDS011;55741;53.252;5.788;2023-02-18T13:51:15;25.58;;;4.75;;
54123;SDS011;55741;53.252;5.788;2023-02-18T13:53:55;22.55;;;4.78;;
54123;SDS011;55741;53.252;5.788;2023-02-18T13:56:26;28.63;;;5.13;;
54123;SDS011;55741;53.252;5.788;2023-02-18T13:58:58;29.80;;;5.03;;
54123;SDS011;55741;53.252;5.788;2023-02-18T14:04:02;21.25;;;5.55;;
54123;SDS011;55741;53.252;5.788;2023-02-18T14:07:23;20.67;;;4.13;;
54123;SDS011;55741;53.252;5.788;2023-02-18T14:09:47;26.90;;;4.45;;
54123;SDS011;55741;53.252;5.788;2023-02-18T14:20:28;28.58;;;4.78;;
54123;SDS011;55741;53.252;5.788;2023-02-18T14:22:56;22.25;;;5.57;;
54123;SDS011;55741;53.252;5.788;2023-02-18T14:25:41;24.17;;;5.10;;
54123;SDS011;55741;53.252;5.788;2023-02-18T14:36:34;29.88;;;6.07;;
54123;SDS011;55741;53.252;5.788;2023-02-18T14:42:41;26.27;;;5.25;;
54123;SDS011;55741;53.252;5.788;2023-02-18T14:51:20;24.85;;;4.80;;
54123;SDS011;55741;53.252;5.788;2023-02-18T14:53:49;27.98;;;4.65;;
54123;SDS011;55741;53.252;5.788;2023-02-18T14:56:17;26.55;;;4.88;;
54123;SDS011;55741;53.252;5.788;2023-02-18T14:58:52;30.08;;;5.47;;
54123;SDS011;55741;53.252;5.788;2023-02-18T15:01:23;19.65;;;4.15;;
54123;SDS011;55741;53.252;5.788;2023-02-18T15:03:52;27.52;;;5.43;;
54123;SDS011;55741;53.252;5.788;2023-02-18T15:11:49;25.92;;;4.20;;
54123;SDS011;55741;53.252;5.788;2023-02-18T15:14:22;23.55;;;4.70;;
54123;SDS011;55741;53.252;5.788;2023-02-18T15:16:55;24.80;;;4.90;;
54123;SDS011;55741;53.252;5.788;2023-02-18T15:19:26;43.45;;;5.63;;
54123;SDS011;55741;53.252;5.788;2023-02-18T15:21:58;29.92;;;5.68;;
54123;SDS011;55741;53.252;5.788;2023-02-18T15:27:00;24.67;;;5.43;;
54123;SDS011;55741;53.252;5.788;2023-02-18T15:29:38;35.45;;;6.50;;
54123;SDS011;55741;53.252;5.788;2023-02-18T15:34:39;23.55;;;4.78;;
54123;SDS011;55741;53.252;5.788;2023-02-18T15:37:09;22.88;;;4.65;;
54123;SDS011;55741;53.252;5.788;2023-02-18T15:39:37;30.02;;;4.72;;
54123;SDS011;55741;53.252;5.788;2023-02-18T15:44:54;29.73;;;5.15;;
54123;SDS011;55741;53.252;5.788;2023-02-18T15:47:22;22.63;;;4.90;;
54123;SDS011;55741;53.252;5.788;2023-02-18T15:49:51;29.13;;;4.95;;
54123;SDS011;55741;53.252;5.788;2023-02-18T15:52:27;27.35;;;5.55;;
54123;SDS011;55741;53.252;5.788;2023-02-18T15:54:56;30.27;;;5.55;;
54123;SDS011;55741;53.252;5.788;2023-02-18T15:57:27;29.38;;;6.07;;
54123;SDS011;55741;53.252;5.788;2023-02-18T16:02:56;25.50;;;5.05;;
54123;SDS011;55741;53.252;5.788;2023-02-18T16:05:26;29.38;;;5.03;;
54123;SDS011;55741;53.252;5.788;2023-02-18T16:13:00;30.58;;;6.10;;
54123;SDS011;55741;53.252;5.788;2023-02-18T16:15:28;37.63;;;5.97;;
54123;SDS011;55741;53.252;5.788;2023-02-18T16:17:56;31.67;;;5.38;;
54123;SDS011;55741;53.252;5.788;2023-02-18T16:20:28;37.22;;;6.35;;
54123;SDS011;55741;53.252;5.788;2023-02-18T16:22:59;28.02;;;4.53;;
54123;SDS011;55741;53.252;5.788;2023-02-18T16:28:13;24.50;;;5.75;;
54123;SDS011;55741;53.252;5.788;2023-02-18T16:30:49;24.98;;;5.00;;
54123;SDS011;55741;53.252;5.788;2023-02-18T16:33:15;25.42;;;6.47;;
54123;SDS011;55741;53.252;5.788;2023-02-18T16:35:41;34.67;;;5.43;;
54123;SDS011;55741;53.252;5.788;2023-02-18T16:38:10;23.42;;;5.15;;
54123;SDS011;55741;53.252;5.788;2023-02-18T16:40:41;33.83;;;6.63;;
54123;SDS011;55741;53.252;5.788;2023-02-18T16:43:18;30.17;;;5.38;;
54123;SDS011;55741;53.252;5.788;2023-02-18T16:45:52;35.55;;;7.07;;
54123;SDS011;55741;53.252;5.788;2023-02-18T16:48:29;27.67;;;4.65;;
54123;SDS011;55741;53.252;5.788;2023-02-18T16:50:58;28.52;;;5.00;;
54123;SDS011;55741;53.252;5.788;2023-02-18T16:53:28;26.63;;;4.72;;
54123;SDS011;55741;53.252;5.788;2023-02-18T16:55:54;28.63;;;6.55;;
54123;SDS011;55741;53.252;5.788;2023-02-18T16:58:20;35.88;;;6.60;;
54123;SDS011;55741;53.252;5.788;2023-02-18T17:00:46;32.30;;;6.30;;
54123;SDS011;55741;53.252;5.788;2023-02-18T17:03:14;33.63;;;5.70;;
54123;SDS011;55741;53.252;5.788;2023-02-18T17:05:41;36.67;;;6.03;;
54123;SDS011;55741;53.252;5.788;2023-02-18T17:08:17;29.15;;;5.60;;
54123;SDS011;55741;53.252;5.788;2023-02-18T17:10:47;32.17;;;6.30;;
54123;SDS011;55741;53.252;5.788;2023-02-18T17:13:20;30.75;;;7.03;;
54123;SDS011;55741;53.252;5.788;2023-02-18T17:15:54;27.48;;;5.63;;
54123;SDS011;55741;53.252;5.788;2023-02-18T17:18:21;26.00;;;5.55;;
54123;SDS011;55741;53.252;5.788;2023-02-18T17:20:48;30.58;;;7.50;;
54123;SDS011;55741;53.252;5.788;2023-02-18T17:23:19;33.35;;;6.80;;
54123;SDS011;55741;53.252;5.788;2023-02-18T17:25:47;34.88;;;6.35;;
54123;SDS011;55741;53.252;5.788;2023-02-18T17:28:14;33.65;;;6.40;;
54123;SDS011;55741;53.252;5.788;2023-02-18T17:30:54;27.33;;;7.22;;
54123;SDS011;55741;53.252;5.788;2023-02-18T17:33:22;32.08;;;7.13;;
54123;SDS011;55741;53.252;5.788;2023-02-18T17:35:49;31.90;;;6.65;;